Max Meadows, VA (24360)

10:32 AM EDT on September 17, 2014 (GMT -0400)
Cedar Run Farms | Change Station
CLOSE
Current Station
Personal Weather Station
Location: Max Meadows, VA
Elevation: 2142 ft
Nearby Weather Stations

Elev 2142 ft 36.88 °N, 80.94 °W | Updated 2 minutes ago

Overcast
Overcast
61.6 °F
Feels Like 61.6 °F
N
2.0
Wind Variable Wind from NNE
Gusts 6.0 mph

Today
High -- | Low -- °F
--% Chance of Precip.
Yesterday
High -- | Low -- °F
Precip. -- in
7:07 AM 7:28 PM
Waning Crescent, 35% visible
Pressure 30.09 in
Visibility 10.0 miles
Clouds Scattered Clouds 3000 ft
Scattered Clouds 3500 ft
Scattered Clouds 4300 ft
Dew Point 56 °F
Humidity 82%
Rainfall 0.00 in
Snow Depth Not available.
UV 3 out of 12
Pollen 5.30 out of 12
Air Quality Not available.
Flu Activity Not available.
METAR KHLX 171415Z AUTO 10003KT 10SM SCT030 SCT035 SCT043 15/12 A3009 RMK AO2 T01510115

More Conditions Fewer Conditions

Pressure 30.09 in
Visibility 10.0 miles
Clouds Scattered Clouds 3000 ft
Scattered Clouds 3500 ft
Scattered Clouds 4300 ft
Dew Point 56 °F
Humidity 82%
Rainfall 0.00 in
Snow Depth Not available.
UV 3 out of 12
Pollen 5.30 out of 12
Air Quality Not available.
Flu Activity Not available.
METAR KHLX 171415Z AUTO 10003KT 10SM SCT030 SCT035 SCT043 15/12 A3009 RMK AO2 T01510115

More Conditions Fewer Conditions

10-Day Weather Forecast

Almanac

Astronomy

Sep. 17, 2014 Rise Set
Actual Time 7:07 AM EDT 7:28 PM EDT
Civil Twilight 6:41 AM EDT 7:54 PM EDT
Nautical Twilight 6:10 AM EDT 8:24 PM EDT
Astronomical Twilight 5:39 AM EDT 8:55 PM EDT
Moon 1:12 AM EDT 3:30 PM EDT
Length of Visible Light 13h 12m
Length of Day
12h 20m
Tomorrow will be 2m 20s shorter.
Waning Crescent, 35% of the Moon is Illuminated
Today
Waning Crescent
Sep 24
New
Oct 1
First Quarter
Oct 8
Full
Oct 15
Last Quarter

Today's Extremes

State Highs State Lows

Community

WunderPhotos

Upload Photos

1,754,057 photos uploaded!

WunderBlogs® & News

By Dr. Jeff Masters
Director of Meteorology, Weather Underground
By Kari Strenfel
Meteorologist, Weather Underground
By Christopher C. Burt
Weather Historian, Weather Underground
September 17, 2014
September 17, 2014
September 17, 2014

Nearby

Snow Depth

Station Depth Elevation
No new snow has been reported.

Earthquake Activity

City Distance Mag. Time & Date
No recent earthquake activity has been reported nearby.
Minimum magnitude displayed is 2.5.

Coastal Water Temperatures

Place Temperature
No Stations Reporting

Nearby Weather Stations